Time;durP1;ratioP1;P1;durP2;ratioP2;P2;SDS_P1;SDS_P2;PMS_P1;PMS_P2;Temp;Humidity;BMP_temperature;BMP_pressure;BME280_temperature;BME280_humidity;BME280_pressure;Samples;Min_cycle;Max_cycle;Signal;HPM_P1;HPM_P2
2022/01/12 00:00:58;;;;;;;4.00;1.83;;;21.50;43.10;;;;;;4998765;28;90707;-72
2022/01/12 00:03:26;;;;;;;2.87;2.20;;;21.50;43.20;;;;;;4998650;28;88944;-72
2022/01/12 00:05:54;;;;;;;3.93;2.30;;;21.50;43.20;;;;;;4999813;28;88413;-72
2022/01/12 00:08:22;;;;;;;4.80;2.40;;;21.50;43.20;;;;;;5000111;28;88492;-72
2022/01/12 00:10:50;;;;;;;2.80;2.10;;;21.50;43.30;;;;;;4997749;28;89591;-71
2022/01/12 00:13:19;;;;;;;4.70;2.20;;;21.50;43.30;;;;;;4997356;28;90106;-72
2022/01/12 00:15:47;;;;;;;4.37;2.23;;;21.40;43.20;;;;;;4998964;28;88478;-72
2022/01/12 00:18:15;;;;;;;4.60;2.37;;;21.40;43.20;;;;;;4991626;28;88887;-72
2022/01/12 00:20:43;;;;;;;3.20;2.17;;;21.40;43.20;;;;;;4999837;28;91035;-72
2022/01/12 00:23:11;;;;;;;3.60;2.10;;;21.40;43.30;;;;;;4999421;28;90113;-72
2022/01/12 00:25:57;;;;;;;2.83;2.13;;;21.40;43.30;;;;;;4985593;28;88462;-72
2022/01/12 00:34:00;;;;;;;4.17;2.00;;;21.30;43.90;;;;;;5000392;28;89874;-71
2022/01/12 00:36:28;;;;;;;7.20;2.30;;;21.30;43.30;;;;;;4999381;28;88900;-71
2022/01/12 00:38:55;;;;;;;5.23;2.33;;;21.20;43.30;;;;;;4999692;28;88485;-71
2022/01/12 00:41:23;;;;;;;3.20;1.93;;;21.20;43.30;;;;;;4999580;28;89888;-71
2022/01/12 00:43:58;;;;;;;3.60;2.77;;;21.20;43.30;;;;;;4997044;28;90001;-72
2022/01/12 00:46:26;;;;;;;3.47;2.53;;;21.20;43.70;;;;;;4998590;28;88873;-72
2022/01/12 00:48:55;;;;;;;4.37;2.03;;;21.20;43.40;;;;;;4991565;28;89548;-71
2022/01/12 00:51:26;;;;;;;3.77;2.17;;;21.20;43.40;;;;;;4998728;28;90832;-70
2022/01/12 00:53:54;;;;;;;2.80;2.10;;;21.20;43.40;;;;;;4992021;28;91272;-72
2022/01/12 00:56:22;;;;;;;3.80;2.10;;;21.20;43.40;;;;;;4999115;28;91004;-72
2022/01/12 00:58:50;;;;;;;2.33;2.13;;;21.10;43.40;;;;;;4999376;28;88634;-72
2022/01/12 01:01:20;;;;;;;2.93;1.97;;;21.10;43.40;;;;;;4998092;28;89832;-71
2022/01/12 01:03:48;;;;;;;2.73;2.27;;;21.10;43.40;;;;;;4998304;28;89952;-72
2022/01/12 01:06:16;;;;;;;2.57;1.70;;;21.10;43.50;;;;;;4999259;28;88592;-72
2022/01/12 01:08:44;;;;;;;2.63;2.20;;;21.10;43.50;;;;;;4999242;28;88436;-72
2022/01/12 01:11:12;;;;;;;3.10;2.40;;;21.10;43.50;;;;;;4996896;28;93320;-71
2022/01/12 01:13:48;;;;;;;3.00;1.73;;;21.10;43.50;;;;;;4998565;28;89013;-72
2022/01/12 01:16:21;;;;;;;3.17;2.07;;;21.10;43.50;;;;;;4998043;28;91680;-72
2022/01/12 01:27:07;;;;;;;4.90;2.07;;;21.00;43.50;;;;;;4997298;28;88828;-72
2022/01/12 01:29:35;;;;;;;2.53;2.17;;;21.00;43.50;;;;;;4998617;28;88740;-71
2022/01/12 01:32:03;;;;;;;3.73;2.70;;;21.00;43.60;;;;;;4999851;28;89525;-72
2022/01/12 01:34:33;;;;;;;2.00;1.90;;;20.90;43.60;;;;;;4998563;28;88429;-72
2022/01/12 01:37:01;;;;;;;2.53;2.10;;;20.90;43.50;;;;;;4994529;28;89174;-72
2022/01/12 01:39:29;;;;;;;2.67;1.80;;;20.90;43.50;;;;;;4989529;28;88379;-72
2022/01/12 01:42:01;;;;;;;3.13;1.83;;;20.90;43.60;;;;;;4999179;28;89284;-72
2022/01/12 01:53:17;;;;;;;3.30;1.77;;;20.90;43.60;;;;;;5001729;28;90492;-72
2022/01/12 01:55:41;;;;;;;2.90;2.03;;;20.80;43.50;;;;;;5001301;28;88890;-72
2022/01/12 01:58:09;;;;;;;3.37;1.93;;;20.80;43.60;;;;;;5001387;28;88730;-72
2022/01/12 02:00:37;;;;;;;2.40;1.93;;;20.80;43.70;;;;;;5001144;28;88674;-72
2022/01/12 02:03:05;;;;;;;3.17;2.10;;;20.80;43.70;;;;;;5000916;28;90695;-72
2022/01/12 02:05:35;;;;;;;2.20;2.00;;;20.80;43.70;;;;;;5001628;28;89019;-72
2022/01/12 02:08:03;;;;;;;2.87;2.13;;;20.70;43.60;;;;;;4987450;28;91342;-72
2022/01/12 02:10:31;;;;;;;2.83;2.40;;;20.70;43.60;;;;;;4994826;28;88612;-72
2022/01/12 02:12:59;;;;;;;3.87;2.20;;;20.70;43.60;;;;;;4995401;28;90742;-71
2022/01/12 02:15:27;;;;;;;4.47;2.40;;;20.70;43.60;;;;;;5000975;28;88413;-72
2022/01/12 02:18:04;;;;;;;2.60;2.23;;;20.70;43.60;;;;;;5000337;28;88620;-72
2022/01/12 02:40:03;;;;;;;4.70;2.10;;;20.60;43.70;;;;;;5000205;28;88557;-72
2022/01/12 02:42:31;;;;;;;2.60;2.40;;;20.60;43.70;;;;;;5000671;28;88616;-72
2022/01/12 02:50:47;;;;;;;3.07;2.60;;;20.60;43.70;;;;;;5000331;28;88496;-72
2022/01/12 02:56:01;;;;;;;2.50;2.07;;;20.60;43.80;;;;;;4991141;28;91036;-72
2022/01/12 02:58:29;;;;;;;3.93;2.43;;;20.50;43.70;;;;;;4998754;28;90401;-72
2022/01/12 03:01:15;;;;;;;4.20;2.40;;;20.50;43.70;;;;;;4999164;28;90001;-72
2022/01/12 03:03:45;;;;;;;3.50;2.07;;;20.50;43.70;;;;;;5000271;28;88412;-72
2022/01/12 03:06:17;;;;;;;2.33;2.13;;;20.50;43.70;;;;;;5000859;28;89501;-72
2022/01/12 03:08:47;;;;;;;3.03;2.30;;;20.50;43.80;;;;;;4999900;28;90102;-72
2022/01/12 03:11:16;;;;;;;2.00;1.73;;;20.50;43.80;;;;;;5001301;28;88453;-72
2022/01/12 03:13:44;;;;;;;3.10;2.47;;;20.50;43.80;;;;;;5001924;28;88366;-72
2022/01/12 03:16:14;;;;;;;2.83;1.87;;;20.50;43.80;;;;;;5000128;28;90638;-72
2022/01/12 03:18:42;;;;;;;2.97;2.00;;;20.50;43.80;;;;;;4999107;28;88925;-72
2022/01/12 03:21:12;;;;;;;3.17;2.30;;;20.50;43.80;;;;;;5000563;28;88601;-72
2022/01/12 03:23:40;;;;;;;5.53;2.20;;;20.50;43.80;;;;;;5001469;28;88409;-72
2022/01/12 03:26:10;;;;;;;1.93;1.70;;;20.40;43.80;;;;;;5000092;28;89623;-72
2022/01/12 03:28:38;;;;;;;3.10;2.63;;;20.40;43.80;;;;;;5000021;28;90043;-72
2022/01/12 03:31:10;;;;;;;2.97;2.10;;;20.40;43.80;;;;;;5000047;28;89823;-72
2022/01/12 03:33:54;;;;;;;2.13;1.93;;;20.40;43.80;;;;;;5000465;28;89958;-72
2022/01/12 03:39:08;;;;;;;2.73;2.47;;;20.40;43.80;;;;;;5000847;28;90044;-72
2022/01/12 03:41:37;;;;;;;3.33;1.90;;;20.40;43.80;;;;;;4994159;28;88381;-69
2022/01/12 03:44:06;;;;;;;2.50;2.17;;;20.40;43.80;;;;;;4999698;28;88459;-73
2022/01/12 03:46:36;;;;;;;2.60;2.40;;;20.40;43.90;;;;;;5000400;28;89513;-73
2022/01/12 03:49:04;;;;;;;3.30;2.33;;;20.40;43.90;;;;;;4999978;28;89835;-72
2022/01/12 03:51:32;;;;;;;3.30;2.13;;;20.30;43.80;;;;;;4999196;28;88839;-72
2022/01/12 03:54:00;;;;;;;2.43;2.00;;;20.30;43.80;;;;;;4999405;28;90411;-72
2022/01/12 03:56:28;;;;;;;2.53;2.03;;;20.30;43.80;;;;;;5000341;28;90668;-73
2022/01/12 03:58:57;;;;;;;3.50;1.93;;;20.30;43.80;;;;;;4999577;28;89975;-72
2022/01/12 04:01:25;;;;;;;2.73;2.50;;;20.30;43.80;;;;;;4999635;28;88354;-72
2022/01/12 04:04:01;;;;;;;3.73;2.50;;;20.30;43.80;;;;;;4988206;28;89963;-72
2022/01/12 04:09:34;;;;;;;2.20;1.90;;;20.30;43.80;;;;;;4999043;28;89771;-73
2022/01/12 04:12:02;;;;;;;2.73;2.37;;;20.30;43.80;;;;;;4994007;28;88338;-72
2022/01/12 04:14:32;;;;;;;2.77;2.13;;;20.30;43.90;;;;;;4998095;28;89225;-73
2022/01/12 04:17:00;;;;;;;2.50;1.90;;;20.20;43.80;;;;;;5000199;28;89786;-73
2022/01/12 04:19:28;;;;;;;2.63;2.33;;;20.20;43.80;;;;;;4999449;28;90530;-72
2022/01/12 04:22:06;;;;;;;2.83;2.43;;;20.20;43.90;;;;;;4999979;28;88414;-72
2022/01/12 04:24:35;;;;;;;2.17;1.97;;;20.20;43.90;;;;;;4997525;28;88612;-72
2022/01/12 04:27:03;;;;;;;2.77;2.13;;;20.20;43.90;;;;;;4999215;28;92931;-72
2022/01/12 04:29:32;;;;;;;2.37;1.93;;;20.20;43.90;;;;;;4999983;28;90826;-73
2022/01/12 04:32:00;;;;;;;2.30;2.00;;;20.20;43.90;;;;;;4999465;28;88868;-73
2022/01/12 04:34:28;;;;;;;2.43;2.10;;;20.20;43.90;;;;;;4999635;28;89340;-73
2022/01/12 04:36:56;;;;;;;2.27;2.07;;;20.10;43.80;;;;;;5000172;28;90744;-73
2022/01/12 04:39:24;;;;;;;4.07;2.33;;;20.10;43.90;;;;;;4998958;28;89084;-72
2022/01/12 04:41:52;;;;;;;2.97;2.10;;;20.20;44.00;;;;;;5000755;28;92289;-73
2022/01/12 04:44:20;;;;;;;3.37;2.03;;;20.10;43.80;;;;;;4999046;28;88648;-72
2022/01/12 04:46:51;;;;;;;3.40;2.30;;;20.10;43.80;;;;;;4999461;28;90582;-73
2022/01/12 04:49:47;;;;;;;2.70;2.17;;;20.10;43.90;;;;;;4996239;28;89192;-73
2022/01/12 04:52:15;;;;;;;3.00;2.23;;;20.10;43.90;;;;;;4999405;28;88883;-73
2022/01/12 04:54:43;;;;;;;2.70;2.17;;;20.10;43.80;;;;;;5000406;28;88646;-73
2022/01/12 04:57:11;;;;;;;2.47;1.87;;;20.10;43.90;;;;;;4999794;28;90712;-73
2022/01/12 04:59:50;;;;;;;3.17;2.27;;;20.10;43.90;;;;;;4998986;28;90077;-73
2022/01/12 05:07:58;;;;;;;2.63;2.40;;;20.10;43.90;;;;;;4967348;28;89912;-72
2022/01/12 05:13:08;;;;;;;3.33;2.63;;;20.00;43.90;;;;;;4976467;28;88924;-72
2022/01/12 05:15:36;;;;;;;3.47;2.27;;;20.00;43.90;;;;;;4998192;28;88699;-72
2022/01/12 05:18:06;;;;;;;2.97;2.23;;;20.00;43.90;;;;;;4998346;28;89410;-72
2022/01/12 05:20:34;;;;;;;3.97;2.37;;;20.00;43.90;;;;;;4994556;28;90218;-73
2022/01/12 05:23:02;;;;;;;3.27;2.43;;;20.10;44.00;;;;;;4994664;28;88631;-72
2022/01/12 05:25:30;;;;;;;2.20;2.00;;;20.00;43.90;;;;;;4988994;28;88567;-72
2022/01/12 05:27:58;;;;;;;4.60;3.00;;;20.00;43.90;;;;;;4979452;28;90728;-72
2022/01/12 05:30:26;;;;;;;3.87;2.40;;;20.00;43.90;;;;;;4996475;28;90006;-72
2022/01/12 05:32:54;;;;;;;2.53;2.33;;;20.00;43.90;;;;;;4998570;28;89706;-73
2022/01/12 05:35:24;;;;;;;2.37;2.03;;;20.00;43.90;;;;;;4983013;28;88703;-73
2022/01/12 05:37:52;;;;;;;2.40;2.10;;;20.00;44.00;;;;;;4990843;28;92599;-72
2022/01/12 05:40:21;;;;;;;3.73;2.13;;;20.00;44.00;;;;;;4985137;28;90083;-72
2022/01/12 05:42:50;;;;;;;2.00;1.73;;;20.00;44.00;;;;;;4990068;28;88845;-72
2022/01/12 05:45:22;;;;;;;3.80;2.40;;;20.00;44.00;;;;;;4998442;28;88736;-73
2022/01/12 05:50:38;;;;;;;2.90;2.33;;;19.90;43.90;;;;;;4995822;28;90097;-72
2022/01/12 05:53:06;;;;;;;3.70;2.00;;;19.90;43.90;;;;;;4981899;28;88453;-72
2022/01/12 05:55:34;;;;;;;4.10;2.43;;;19.90;43.90;;;;;;4997554;28;88721;-73
2022/01/12 05:58:02;;;;;;;3.47;2.20;;;19.90;43.90;;;;;;4998438;28;89459;-72
2022/01/12 06:00:30;;;;;;;3.43;2.27;;;19.90;44.00;;;;;;4989392;28;90073;-72
2022/01/12 06:02:58;;;;;;;4.57;2.27;;;19.90;44.00;;;;;;4997982;28;88553;-73
2022/01/12 06:05:28;;;;;;;2.47;2.03;;;19.90;44.00;;;;;;4998704;28;88662;-73
2022/01/12 06:07:57;;;;;;;2.60;2.00;;;19.90;44.00;;;;;;4998649;28;90016;-73
2022/01/12 06:10:25;;;;;;;3.87;2.23;;;19.90;44.00;;;;;;4997489;28;90074;-72
2022/01/12 06:12:53;;;;;;;3.13;2.23;;;19.90;44.00;;;;;;4989583;28;90742;-73
2022/01/12 06:15:21;;;;;;;3.03;2.50;;;19.90;44.00;;;;;;4988508;28;89304;-72
2022/01/12 06:17:49;;;;;;;4.27;2.33;;;19.90;44.00;;;;;;4988565;28;90145;-73
2022/01/12 06:20:20;;;;;;;4.50;2.33;;;19.90;44.00;;;;;;4994171;28;90162;-72
2022/01/12 06:22:48;;;;;;;4.13;2.57;;;19.80;43.90;;;;;;4998970;28;90080;-73
2022/01/12 06:25:17;;;;;;;5.27;2.83;;;19.80;44.00;;;;;;4998148;28;88971;-73
2022/01/12 06:27:52;;;;;;;4.60;2.70;;;19.80;44.00;;;;;;4997747;28;89862;-72
2022/01/12 06:33:06;;;;;;;3.20;2.50;;;19.80;44.00;;;;;;5006276;28;89016;-72
2022/01/12 06:35:33;;;;;;;3.17;2.67;;;19.80;44.00;;;;;;4998831;28;88843;-73
2022/01/12 06:38:01;;;;;;;3.07;2.33;;;19.80;44.00;;;;;;5001825;28;90067;-74
2022/01/12 06:40:31;;;;;;;3.93;2.87;;;19.80;44.00;;;;;;5000784;28;90028;-73
2022/01/12 06:42:59;;;;;;;3.67;2.57;;;19.80;44.00;;;;;;5002121;28;88366;-72
2022/01/12 06:45:27;;;;;;;4.23;2.73;;;19.80;44.00;;;;;;5000625;28;88417;-73
2022/01/12 06:47:55;;;;;;;2.87;2.50;;;19.80;44.00;;;;;;5000675;28;89969;-72
2022/01/12 06:50:22;;;;;;;3.73;2.53;;;19.70;43.90;;;;;;5001026;28;91186;-72
2022/01/12 06:52:50;;;;;;;3.40;2.80;;;19.70;43.90;;;;;;5000515;28;91013;-72
2022/01/12 06:55:19;;;;;;;4.27;2.77;;;19.70;43.90;;;;;;5001759;28;88465;-72
2022/01/12 06:57:48;;;;;;;3.77;3.00;;;19.70;43.90;;;;;;4991775;28;90633;-72
2022/01/12 07:00:17;;;;;;;2.33;2.10;;;19.70;44.00;;;;;;4995423;28;89009;-73
2022/01/12 07:02:45;;;;;;;4.03;2.37;;;19.70;44.00;;;;;;5007605;28;89128;-72
2022/01/12 07:05:13;;;;;;;3.50;1.90;;;19.70;44.10;;;;;;5003401;28;88543;-72
2022/01/12 07:07:41;;;;;;;2.97;2.40;;;19.70;44.00;;;;;;5000595;28;89657;-73
2022/01/12 07:10:10;;;;;;;3.30;2.60;;;19.70;44.00;;;;;;5000247;28;89141;-72
2022/01/12 07:12:38;;;;;;;3.17;2.60;;;19.60;43.90;;;;;;4994091;28;90058;-71
2022/01/12 07:15:09;;;;;;;4.07;2.80;;;19.60;44.00;;;;;;5000548;28;88401;-72
2022/01/12 07:17:37;;;;;;;3.97;2.73;;;19.60;44.00;;;;;;5000657;28;90916;-72
2022/01/12 07:20:06;;;;;;;3.37;2.53;;;19.60;44.00;;;;;;4997198;28;92013;-72
2022/01/12 07:22:34;;;;;;;4.37;2.70;;;19.60;44.10;;;;;;4999913;28;88613;-71
2022/01/12 07:25:02;;;;;;;4.37;2.60;;;19.60;44.20;;;;;;5000744;28;88737;-72
2022/01/12 07:27:30;;;;;;;5.37;2.67;;;19.60;44.40;;;;;;5000551;28;90913;-71
2022/01/12 07:29:59;;;;;;;5.03;2.73;;;19.60;44.60;;;;;;4999810;28;90074;-71
2022/01/12 07:32:31;;;;;;;3.83;3.00;;;19.60;44.80;;;;;;5004983;28;90077;-72
2022/01/12 07:34:59;;;;;;;4.43;2.80;;;19.60;45.00;;;;;;5008794;28;88421;-72
2022/01/12 07:37:27;;;;;;;4.73;2.70;;;19.60;45.10;;;;;;4999917;28;92460;-71
2022/01/12 07:39:55;;;;;;;6.93;2.77;;;19.60;45.20;;;;;;4998814;28;93491;-72
2022/01/12 07:42:23;;;;;;;4.13;2.70;;;19.60;45.30;;;;;;5000242;28;91440;-72
2022/01/12 07:44:58;;;;;;;6.87;2.53;;;19.60;45.50;;;;;;5001028;28;88339;-72
2022/01/12 07:47:27;;;;;;;9.37;3.30;;;19.70;45.60;;;;;;5000116;28;90682;-71
2022/01/12 07:49:55;;;;;;;7.67;3.00;;;19.90;45.80;;;;;;4979647;28;90078;-72
2022/01/12 07:52:23;;;;;;;4.07;2.77;;;20.00;45.80;;;;;;4981478;28;88819;-72
2022/01/12 07:54:56;;;;;;;5.67;2.73;;;20.20;46.00;;;;;;4998845;28;88684;-73
2022/01/12 07:57:24;;;;;;;7.27;3.27;;;20.50;46.20;;;;;;4997366;28;89978;-73
2022/01/12 07:59:52;;;;;;;4.87;3.03;;;20.70;46.40;;;;;;4989063;28;89052;-73
2022/01/12 08:02:20;;;;;;;5.77;3.70;;;21.00;46.60;;;;;;4990751;28;90455;-72
2022/01/12 08:04:49;;;;;;;6.77;4.03;;;21.30;46.90;;;;;;5000143;28;88640;-72
2022/01/12 08:07:17;;;;;;;6.77;3.67;;;21.60;46.90;;;;;;5004828;28;90758;-73
2022/01/12 08:09:45;;;;;;;19.67;4.03;;;21.80;46.90;;;;;;5010133;28;88998;-72
2022/01/12 08:12:14;;;;;;;6.60;3.67;;;22.00;47.00;;;;;;4993558;28;90406;-72
2022/01/12 08:14:47;;;;;;;6.87;3.63;;;22.10;47.10;;;;;;4988720;28;88875;-71
2022/01/12 08:17:17;;;;;;;4.83;3.17;;;22.20;47.30;;;;;;4980066;28;92475;-71
2022/01/12 08:19:45;;;;;;;7.13;3.53;;;22.20;47.30;;;;;;4988666;28;89252;-71
2022/01/12 08:22:15;;;;;;;9.20;3.77;;;22.20;47.40;;;;;;4988391;28;88476;-71
2022/01/12 08:24:43;;;;;;;9.63;3.67;;;22.20;47.60;;;;;;4993982;28;88321;-71
2022/01/12 08:27:11;;;;;;;5.67;3.60;;;22.20;47.70;;;;;;4989281;28;89864;-72
2022/01/12 08:29:39;;;;;;;6.47;4.17;;;22.30;48.10;;;;;;4985613;28;90075;-72
2022/01/12 08:32:08;;;;;;;6.67;3.40;;;22.40;48.00;;;;;;4998585;28;88584;-72
2022/01/12 08:34:36;;;;;;;4.90;2.87;;;22.50;48.10;;;;;;4999081;28;88469;-71
2022/01/12 08:37:04;;;;;;;12.07;3.97;;;22.70;48.10;;;;;;4999892;28;89776;-71
2022/01/12 08:39:34;;;;;;;4.73;3.43;;;22.90;48.10;;;;;;4982920;28;90108;-71
2022/01/12 08:42:02;;;;;;;5.30;3.40;;;23.00;48.10;;;;;;4991526;28;89733;-71
2022/01/12 08:44:34;;;;;;;5.97;3.07;;;23.20;48.20;;;;;;5000260;28;88505;-72
2022/01/12 08:47:03;;;;;;;6.60;4.07;;;23.40;48.20;;;;;;5000236;28;90856;-71
2022/01/12 08:49:31;;;;;;;5.50;3.30;;;23.50;48.10;;;;;;4997380;28;88643;-71
2022/01/12 08:51:59;;;;;;;6.43;2.90;;;23.60;48.10;;;;;;4997049;28;88713;-69
2022/01/12 08:54:27;;;;;;;6.27;3.73;;;23.60;48.00;;;;;;4989445;28;88480;-69
2022/01/12 08:56:56;;;;;;;4.50;2.80;;;23.60;47.90;;;;;;4992848;28;89571;-69
2022/01/12 08:59:24;;;;;;;3.60;3.00;;;23.60;47.80;;;;;;4981720;28;88985;-69
2022/01/12 09:01:52;;;;;;;11.03;3.20;;;23.60;47.80;;;;;;4994032;28;88409;-70
2022/01/12 09:04:21;;;;;;;5.00;2.90;;;23.60;47.70;;;;;;5000353;28;88551;-70
2022/01/12 09:06:51;;;;;;;3.77;2.90;;;23.70;47.70;;;;;;4985002;28;89601;-69
2022/01/12 09:09:19;;;;;;;6.17;2.97;;;23.70;47.50;;;;;;4999789;28;90090;-69
2022/01/12 09:11:47;;;;;;;5.30;2.90;;;23.90;48.10;;;;;;4992827;28;88822;-70
2022/01/12 09:14:16;;;;;;;6.50;3.27;;;24.00;47.40;;;;;;4984770;28;89676;-69
2022/01/12 09:16:44;;;;;;;4.43;2.87;;;24.10;47.20;;;;;;4995544;28;90697;-70
2022/01/12 09:19:13;;;;;;;6.27;3.30;;;24.20;47.00;;;;;;4995756;28;90100;-70
2022/01/12 09:21:40;;;;;;;6.27;2.67;;;24.30;47.40;;;;;;4990374;28;88826;-70
2022/01/12 09:24:09;;;;;;;3.97;3.07;;;24.40;46.60;;;;;;4988197;28;88632;-70
2022/01/12 09:26:36;;;;;;;4.47;3.13;;;24.50;46.50;;;;;;4989573;28;90287;-70
2022/01/12 09:29:04;;;;;;;6.93;3.40;;;24.50;46.30;;;;;;4991592;28;90079;-70
2022/01/12 09:31:35;;;;;;;9.03;3.20;;;24.50;46.20;;;;;;4997273;28;88976;-70
2022/01/12 09:34:03;;;;;;;4.43;2.50;;;24.50;46.10;;;;;;4992327;28;88685;-70
2022/01/12 09:36:31;;;;;;;7.40;3.53;;;24.40;46.00;;;;;;4995842;28;90584;-70
2022/01/12 09:39:00;;;;;;;5.30;2.90;;;24.30;46.00;;;;;;4991887;28;88510;-69
2022/01/12 09:41:28;;;;;;;4.40;2.97;;;24.30;46.00;;;;;;4993611;28;88863;-69
2022/01/12 09:43:57;;;;;;;7.97;3.27;;;24.20;45.90;;;;;;4994602;28;89305;-69
2022/01/12 09:46:26;;;;;;;4.03;3.33;;;24.10;45.90;;;;;;4993140;28;90770;-69
2022/01/12 09:48:56;;;;;;;8.53;3.13;;;23.90;45.80;;;;;;4995892;28;89127;-69
2022/01/12 09:51:24;;;;;;;7.27;3.23;;;23.80;45.80;;;;;;4994619;28;88512;-69
2022/01/12 09:53:52;;;;;;;5.77;3.33;;;23.80;45.90;;;;;;4985684;28;90149;-69
2022/01/12 09:56:21;;;;;;;6.03;2.60;;;23.80;45.90;;;;;;4989263;28;90508;-69
2022/01/12 09:58:51;;;;;;;4.07;2.83;;;23.80;45.90;;;;;;4989460;28;90219;-69
2022/01/12 10:01:24;;;;;;;3.40;2.63;;;23.90;45.80;;;;;;4988577;28;88562;-70
2022/01/12 10:03:52;;;;;;;7.20;2.73;;;24.00;45.80;;;;;;4990013;28;88705;-69
2022/01/12 10:06:21;;;;;;;5.27;2.90;;;24.10;45.60;;;;;;4995512;28;89216;-69
2022/01/12 10:08:54;;;;;;;8.20;3.20;;;24.20;45.50;;;;;;4999338;28;90185;-69
2022/01/12 10:11:22;;;;;;;6.87;2.90;;;24.30;45.40;;;;;;4994531;28;88996;-73
2022/01/12 10:13:56;;;;;;;9.20;3.20;;;24.40;45.20;;;;;;4994800;28;88658;-72
2022/01/12 10:16:26;;;;;;;6.10;3.10;;;24.40;45.10;;;;;;4996661;28;90695;-72
2022/01/12 10:18:57;;;;;;;3.67;2.53;;;24.40;45.10;;;;;;4996629;28;90590;-72
2022/01/12 10:21:31;;;;;;;5.37;3.00;;;24.40;45.00;;;;;;5002092;28;88899;-72
2022/01/12 10:24:00;;;;;;;4.83;3.00;;;24.40;45.10;;;;;;4992968;28;88460;-72
2022/01/12 10:26:33;;;;;;;4.83;3.17;;;24.30;45.00;;;;;;4990826;28;88796;-72
2022/01/12 10:29:09;;;;;;;8.97;2.83;;;24.20;45.00;;;;;;5001623;28;89018;-72
2022/01/12 10:31:49;;;;;;;6.13;3.10;;;24.10;45.00;;;;;;4999185;28;92043;-72
2022/01/12 10:34:20;;;;;;;4.20;2.80;;;24.00;45.00;;;;;;4986129;28;88661;-72
2022/01/12 10:36:50;;;;;;;4.73;2.90;;;24.00;45.00;;;;;;4996630;28;89715;-72
2022/01/12 10:39:18;;;;;;;27.90;3.27;;;23.90;45.10;;;;;;4982706;28;89243;-72
2022/01/12 10:41:57;;;;;;;9.67;3.47;;;23.80;45.10;;;;;;5001175;28;89855;-72
2022/01/12 10:44:25;;;;;;;5.70;2.67;;;23.80;45.20;;;;;;4997386;28;88711;-72
2022/01/12 10:47:07;;;;;;;7.07;3.00;;;23.70;45.20;;;;;;5001289;28;89776;-71
2022/01/12 10:49:37;;;;;;;6.40;3.67;;;23.60;45.20;;;;;;5002823;28;88592;-72
2022/01/12 10:52:09;;;;;;;6.00;3.27;;;23.60;45.20;;;;;;4998385;28;88318;-71
2022/01/12 10:54:58;;;;;;;5.63;3.20;;;23.50;45.20;;;;;;4986394;28;88725;-73
2022/01/12 10:57:27;;;;;;;5.03;2.60;;;23.50;45.20;;;;;;4978342;28;90236;-72
2022/01/12 11:00:07;;;;;;;4.90;2.97;;;23.60;45.10;;;;;;4996961;28;89988;-73
2022/01/12 11:02:36;;;;;;;5.87;3.30;;;23.70;45.20;;;;;;5000180;28;88394;-73
2022/01/12 11:05:05;;;;;;;8.87;3.03;;;23.90;45.10;;;;;;4987777;28;88538;-73
2022/01/12 11:07:35;;;;;;;6.03;3.30;;;24.00;45.00;;;;;;4996223;28;90918;-72
2022/01/12 11:10:05;;;;;;;4.70;3.00;;;24.20;44.90;;;;;;4998956;28;90046;-71
2022/01/12 11:12:35;;;;;;;4.17;2.93;;;24.20;44.70;;;;;;4999520;28;88411;-71
2022/01/12 11:15:05;;;;;;;5.07;3.37;;;24.30;44.60;;;;;;5000185;28;88449;-72
2022/01/12 11:17:33;;;;;;;7.73;3.63;;;24.30;44.60;;;;;;4990927;28;92015;-72
2022/01/12 11:20:05;;;;;;;5.93;3.13;;;24.30;44.50;;;;;;4990662;28;88848;-71
2022/01/12 11:22:47;;;;;;;5.20;3.07;;;24.20;44.40;;;;;;4999955;28;89510;-71
2022/01/12 11:25:20;;;;;;;4.87;2.87;;;24.20;44.40;;;;;;4997658;28;89574;-72
2022/01/12 11:27:51;;;;;;;3.90;2.53;;;24.20;44.40;;;;;;4990520;28;90566;-72
2022/01/12 11:30:22;;;;;;;8.33;3.30;;;24.10;44.40;;;;;;4981203;28;89148;-72
2022/01/12 11:32:57;;;;;;;6.03;3.20;;;24.00;44.40;;;;;;5000881;28;88468;-72
2022/01/12 11:35:28;;;;;;;5.30;2.90;;;24.00;44.60;;;;;;5000616;28;89297;-72
2022/01/12 11:37:59;;;;;;;6.23;3.30;;;23.90;44.50;;;;;;5000735;28;90789;-72
2022/01/12 11:40:38;;;;;;;5.20;3.20;;;23.90;44.50;;;;;;5000896;28;89214;-71
2022/01/12 11:43:17;;;;;;;6.53;3.50;;;23.80;44.60;;;;;;5001391;28;88484;-72
2022/01/12 11:45:45;;;;;;;8.57;3.20;;;23.70;44.60;;;;;;5000736;28;89113;-71
2022/01/12 11:48:13;;;;;;;45.90;23.57;;;23.70;44.70;;;;;;5001285;28;88306;-73
2022/01/12 11:50:51;;;;;;;525.23;304.43;;;23.70;44.80;;;;;;4993623;28;89454;-72
2022/01/12 11:53:22;;;;;;;932.20;586.67;;;23.80;45.00;;;;;;4979892;28;88469;-71
2022/01/12 11:55:50;;;;;;;784.70;461.03;;;23.80;45.10;;;;;;4997908;28;88785;-72
2022/01/12 11:58:18;;;;;;;606.50;326.33;;;23.80;45.10;;;;;;4990345;28;89682;-71
2022/01/12 12:00:46;;;;;;;506.67;261.40;;;23.90;45.10;;;;;;4992305;28;89499;-71
2022/01/12 12:03:15;;;;;;;434.13;219.10;;;23.90;45.10;;;;;;4989855;28;88365;-72
2022/01/12 12:05:44;;;;;;;406.07;192.20;;;24.00;45.10;;;;;;4993134;28;88611;-71
2022/01/12 12:08:12;;;;;;;376.07;168.73;;;24.00;45.00;;;;;;4993882;28;89591;-70
2022/01/12 12:10:41;;;;;;;315.27;145.47;;;23.90;45.00;;;;;;4997357;28;88988;-71
2022/01/12 12:13:11;;;;;;;296.90;138.77;;;24.00;45.00;;;;;;4981669;28;89003;-71
2022/01/12 12:15:40;;;;;;;278.20;127.27;;;24.00;44.90;;;;;;4986786;28;88478;-71
2022/01/12 12:18:08;;;;;;;258.73;118.13;;;24.00;44.90;;;;;;4993528;28;90642;-72
2022/01/12 12:20:36;;;;;;;246.13;113.93;;;24.00;44.90;;;;;;4990088;28;89562;-72
2022/01/12 12:23:05;;;;;;;233.37;106.07;;;24.00;44.80;;;;;;4992340;28;88625;-71
2022/01/12 12:25:34;;;;;;;215.23;99.00;;;24.10;45.00;;;;;;4986160;28;88342;-71
2022/01/12 12:28:04;;;;;;;196.10;92.50;;;24.00;44.80;;;;;;4989574;28;90600;-70
2022/01/12 12:30:33;;;;;;;201.27;93.80;;;24.10;45.00;;;;;;4983432;28;89247;-70
2022/01/12 12:33:06;;;;;;;192.03;90.10;;;24.10;45.00;;;;;;4989423;28;88922;-70
2022/01/12 12:35:35;;;;;;;185.60;86.23;;;24.10;45.00;;;;;;4995084;28;88675;-71
2022/01/12 12:38:04;;;;;;;173.83;79.30;;;24.20;45.10;;;;;;4982487;28;89563;-71
2022/01/12 12:40:33;;;;;;;156.03;78.03;;;24.20;45.70;;;;;;4986723;28;88980;-71
2022/01/12 12:43:04;;;;;;;156.70;75.70;;;24.20;45.10;;;;;;4985874;28;89195;-71
2022/01/12 12:45:37;;;;;;;143.93;70.47;;;24.20;45.10;;;;;;4985199;28;88444;-70
2022/01/12 12:48:06;;;;;;;153.87;69.40;;;24.20;45.10;;;;;;4989659;28;90842;-70
2022/01/12 12:50:34;;;;;;;140.03;63.73;;;24.20;45.20;;;;;;4991543;28;89459;-70
2022/01/12 12:53:06;;;;;;;132.27;60.50;;;24.20;45.20;;;;;;4989080;28;90493;-71
2022/01/12 12:55:35;;;;;;;118.70;56.73;;;24.10;45.20;;;;;;4998152;28;88291;-72
2022/01/12 12:58:05;;;;;;;112.40;55.03;;;24.10;45.30;;;;;;4987853;28;91129;-72
2022/01/12 13:00:33;;;;;;;108.30;50.33;;;24.00;45.50;;;;;;4991374;28;89108;-70
2022/01/12 13:03:01;;;;;;;101.43;50.83;;;23.90;45.50;;;;;;4992256;28;91296;-71
2022/01/12 13:05:32;;;;;;;110.97;48.97;;;23.80;45.50;;;;;;4989807;28;88576;-71
2022/01/12 13:08:00;;;;;;;96.03;46.37;;;23.80;45.60;;;;;;4982015;28;90740;-70
2022/01/12 13:10:30;;;;;;;93.50;45.13;;;23.80;45.60;;;;;;4985133;28;89218;-70
2022/01/12 13:12:59;;;;;;;83.10;41.10;;;23.60;45.50;;;;;;4989266;28;90432;-70
2022/01/12 13:15:29;;;;;;;77.93;40.23;;;23.60;45.40;;;;;;4993090;28;89436;-71
2022/01/12 13:17:58;;;;;;;77.17;38.67;;;23.50;45.40;;;;;;4983764;28;90756;-70
2022/01/12 13:23:18;;;;;;;74.43;35.27;;;23.40;45.30;;;;;;4988824;28;88909;-70
2022/01/12 13:25:46;;;;;;;66.23;35.70;;;23.40;45.30;;;;;;4992224;28;88611;-71
2022/01/12 13:28:14;;;;;;;65.37;33.43;;;23.30;45.20;;;;;;4994733;28;90075;-71
2022/01/12 13:30:51;;;;;;;67.63;30.87;;;23.30;45.20;;;;;;4990624;28;92388;-70
2022/01/12 13:33:29;;;;;;;60.67;28.50;;;23.20;45.10;;;;;;4986874;28;91459;-70
2022/01/12 13:35:58;;;;;;;55.00;27.20;;;23.30;45.10;;;;;;4993641;28;88325;-70
2022/01/12 13:38:27;;;;;;;56.70;26.87;;;23.40;45.00;;;;;;4991160;28;90693;-71
2022/01/12 13:40:56;;;;;;;46.23;23.70;;;23.50;45.00;;;;;;4981769;28;89303;-71
2022/01/12 13:43:24;;;;;;;44.50;22.13;;;23.70;44.90;;;;;;4990886;28;89309;-70
2022/01/12 13:46:01;;;;;;;44.70;22.43;;;23.80;44.70;;;;;;4984749;28;88629;-71
2022/01/12 13:49:09;;;;;;;32.60;19.63;;;24.00;44.70;;;;;;4996220;28;89740;-70
2022/01/12 13:51:40;;;;;;;36.47;18.07;;;24.10;44.50;;;;;;4993563;28;90031;-71
2022/01/12 13:54:09;;;;;;;39.03;18.93;;;24.20;44.40;;;;;;4994806;28;88990;-71
2022/01/12 13:56:37;;;;;;;35.37;18.13;;;24.20;44.40;;;;;;4982892;28;88283;-71
2022/01/12 13:59:05;;;;;;;28.43;15.80;;;24.20;44.30;;;;;;4992853;28;89554;-71
2022/01/12 14:01:36;;;;;;;32.70;16.50;;;24.20;44.30;;;;;;4985624;28;90782;-71
2022/01/12 14:04:11;;;;;;;34.23;15.37;;;24.10;44.20;;;;;;4987649;28;88407;-72
2022/01/12 14:06:41;;;;;;;34.13;14.73;;;24.10;44.20;;;;;;4988682;28;88658;-71